Time;durP1;ratioP1;P1;durP2;ratioP2;P2;SDS_P1;SDS_P2;PMS_P1;PMS_P2;Temp;Humidity;BMP_temperature;BMP_pressure;BME280_temperature;BME280_humidity;BME280_pressure;Samples;Min_cycle;Max_cycle;Signal;HPM_P1;HPM_P2
2022/11/08 00:03:30;;;;;;;2.87;1.97;;;;;;;5.22;100.00;96356.13;5063768;28;20279;-71
2022/11/08 00:14:09;;;;;;;9.93;3.50;;;;;;;5.15;100.00;96351.63;5065054;28;20231;-70
2022/11/08 00:16:36;;;;;;;8.73;3.80;;;;;;;5.13;100.00;96349.16;5057583;28;20220;-70
2022/11/08 00:19:04;;;;;;;8.97;3.70;;;;;;;5.19;100.00;96345.97;5065304;28;20208;-70
2022/11/08 00:21:30;;;;;;;7.63;3.73;;;;;;;5.20;100.00;96349.41;5057363;28;20200;-70
2022/11/08 00:23:57;;;;;;;8.27;3.37;;;;;;;5.17;100.00;96347.09;5053472;28;20200;-71
2022/11/08 00:26:23;;;;;;;5.90;2.90;;;;;;;5.10;100.00;96348.59;5057410;28;20228;-70
2022/11/08 00:28:50;;;;;;;12.23;3.90;;;;;;;5.13;100.00;96346.53;5057209;28;20204;-71
2022/11/08 00:31:16;;;;;;;7.03;3.33;;;;;;;5.00;100.00;96348.63;5057192;28;20250;-70
2022/11/08 00:33:43;;;;;;;5.03;3.33;;;;;;;4.81;100.00;96331.34;5056617;28;20570;-70
2022/11/08 00:36:11;;;;;;;7.27;3.70;;;;;;;4.94;100.00;96336.13;5057049;28;21018;-70
2022/11/08 00:38:41;;;;;;;7.17;2.73;;;;;;;4.92;100.00;96332.81;5057513;28;20204;-70
2022/11/08 00:41:07;;;;;;;4.33;2.20;;;;;;;4.86;100.00;96336.03;5057405;28;20201;-70
2022/11/08 00:43:34;;;;;;;5.43;2.33;;;;;;;4.80;100.00;96340.13;5056246;28;21016;-70
2022/11/08 00:46:00;;;;;;;7.20;3.43;;;;;;;4.87;100.00;96337.69;5058017;28;20230;-70
2022/11/08 00:48:27;;;;;;;7.53;3.10;;;;;;;4.57;100.00;96336.19;5064792;28;20242;-70
2022/11/08 00:50:54;;;;;;;4.33;2.77;;;;;;;4.56;100.00;96329.34;5056798;28;20205;-70
2022/11/08 00:53:22;;;;;;;8.60;2.80;;;;;;;4.56;100.00;96331.94;5056229;28;20719;-70
2022/11/08 00:55:48;;;;;;;6.70;3.17;;;;;;;4.55;100.00;96331.09;5057779;28;20679;-70
2022/11/08 00:58:15;;;;;;;5.80;2.47;;;;;;;4.51;100.00;96331.53;5056810;28;20201;-70
2022/11/08 01:00:41;;;;;;;5.43;2.60;;;;;;;4.67;100.00;96330.00;5056608;28;21165;-70
2022/11/08 01:03:20;;;;;;;4.53;2.57;;;;;;;4.68;100.00;96330.81;5056392;28;20200;-71
2022/11/08 01:05:47;;;;;;;4.80;2.20;;;;;;;4.59;100.00;96327.25;5057492;28;20204;-70
2022/11/08 01:08:14;;;;;;;5.87;3.03;;;;;;;4.63;100.00;96326.00;5057309;28;20211;-71
2022/11/08 01:10:43;;;;;;;6.97;2.70;;;;;;;4.67;100.00;96331.78;5056825;28;20575;-70
2022/11/08 01:13:10;;;;;;;4.67;2.50;;;;;;;4.63;100.00;96327.81;5057128;28;20224;-72
2022/11/08 01:15:39;;;;;;;3.80;2.20;;;;;;;4.73;100.00;96328.63;5061157;28;20200;-70
2022/11/08 01:18:06;;;;;;;5.30;2.60;;;;;;;4.65;100.00;96325.91;5060662;28;21284;-71
2022/11/08 01:20:33;;;;;;;9.63;3.07;;;;;;;4.59;100.00;96326.44;5060818;28;20207;-71
2022/11/08 01:23:00;;;;;;;4.13;2.30;;;;;;;4.59;100.00;96326.44;5057535;28;20903;-70
2022/11/08 01:25:26;;;;;;;4.07;2.43;;;;;;;4.53;100.00;96321.75;5065054;28;20555;-70
2022/11/08 01:27:54;;;;;;;9.40;2.50;;;;;;;4.64;100.00;96324.25;5064378;28;21164;-71
2022/11/08 01:30:20;;;;;;;9.33;3.17;;;;;;;4.48;100.00;96318.75;5063984;28;20204;-71
2022/11/08 01:32:47;;;;;;;4.10;2.53;;;;;;;4.26;100.00;96319.88;5059337;28;20211;-70
2022/11/08 01:35:13;;;;;;;4.17;2.63;;;;;;;4.02;100.00;96318.63;5062700;28;20212;-70
2022/11/08 01:37:40;;;;;;;4.77;2.50;;;;;;;4.05;100.00;96313.13;5066117;28;20220;-70
2022/11/08 01:40:08;;;;;;;5.50;2.77;;;;;;;4.07;100.00;96311.19;5060106;28;20567;-70
2022/11/08 01:42:35;;;;;;;4.67;2.97;;;;;;;4.10;100.00;96303.13;5059700;28;20751;-71
2022/11/08 01:45:05;;;;;;;7.30;2.70;;;;;;;4.24;100.00;96295.69;5060776;28;20205;-70
2022/11/08 01:47:32;;;;;;;4.77;2.23;;;;;;;4.15;100.00;96300.94;5060430;28;20238;-70
2022/11/08 01:50:02;;;;;;;5.23;2.80;;;;;;;4.22;100.00;96296.78;5059956;28;20701;-70
2022/11/08 01:52:33;;;;;;;5.83;2.63;;;;;;;4.20;100.00;96295.28;5059962;28;20212;-70
2022/11/08 01:55:12;;;;;;;4.33;2.50;;;;;;;4.00;100.00;96294.44;5072321;28;20227;-70
2022/11/08 01:57:46;;;;;;;5.60;2.67;;;;;;;4.03;100.00;96290.75;5068635;28;20853;-70
2022/11/08 02:00:15;;;;;;;5.37;2.40;;;;;;;4.11;100.00;96288.28;5060311;28;20204;-71
2022/11/08 02:02:44;;;;;;;4.53;2.50;;;;;;;4.18;100.00;96290.22;5062875;28;20192;-71
2022/11/08 02:05:24;;;;;;;5.80;2.47;;;;;;;4.27;100.00;96290.19;5061281;28;20200;-70
2022/11/08 02:07:57;;;;;;;5.13;2.87;;;;;;;4.29;100.00;96283.06;5062036;28;20277;-70
2022/11/08 02:10:29;;;;;;;5.40;2.73;;;;;;;4.35;100.00;96277.31;5067923;28;20665;-70
2022/11/08 02:12:56;;;;;;;7.40;2.53;;;;;;;4.18;100.00;96281.56;5069948;28;20207;-70
2022/11/08 02:15:25;;;;;;;6.77;2.57;;;;;;;4.26;100.00;96278.13;5063014;28;20204;-70
2022/11/08 02:17:52;;;;;;;6.07;2.40;;;;;;;4.19;100.00;96276.22;5059450;28;20778;-70
2022/11/08 02:20:19;;;;;;;5.83;2.80;;;;;;;4.00;100.00;96265.78;5059874;28;20732;-70
2022/11/08 02:22:50;;;;;;;5.73;2.80;;;;;;;4.05;100.00;96263.59;5056687;28;20565;-71
2022/11/08 02:25:19;;;;;;;4.67;2.43;;;;;;;4.12;100.00;96264.66;5064786;28;20212;-70
2022/11/08 02:27:45;;;;;;;5.43;2.50;;;;;;;3.99;100.00;96261.53;5059953;28;20227;-70
2022/11/08 02:30:12;;;;;;;6.63;3.10;;;;;;;4.03;100.00;96262.06;5064828;28;20215;-70
2022/11/08 02:32:39;;;;;;;11.03;2.97;;;;;;;4.02;100.00;96263.03;5064645;28;20215;-70
2022/11/08 02:35:09;;;;;;;5.57;2.57;;;;;;;4.16;100.00;96260.81;5059680;28;20224;-71
2022/11/08 02:37:36;;;;;;;4.93;2.70;;;;;;;4.13;100.00;96263.72;5059824;28;20231;-71
2022/11/08 02:40:03;;;;;;;6.70;2.67;;;;;;;4.04;100.00;96251.50;5069817;28;20215;-70
2022/11/08 02:42:31;;;;;;;3.90;2.43;;;;;;;4.14;100.00;96254.94;5060887;28;20208;-70
2022/11/08 02:44:57;;;;;;;5.93;2.53;;;;;;;4.20;100.00;96254.41;5059400;28;20251;-70
2022/11/08 02:47:24;;;;;;;4.17;2.27;;;;;;;4.15;100.00;96247.94;5064504;28;20274;-70
2022/11/08 02:49:50;;;;;;;5.37;2.57;;;;;;;4.21;100.00;96250.00;5066951;28;21171;-70
2022/11/08 02:52:17;;;;;;;4.10;2.20;;;;;;;4.13;100.00;96240.25;5058887;28;20226;-70
2022/11/08 02:54:43;;;;;;;4.10;2.50;;;;;;;4.16;100.00;96242.56;5069262;28;20220;-70
2022/11/08 02:57:10;;;;;;;3.73;2.47;;;;;;;4.12;100.00;96241.19;5059357;28;20243;-70
2022/11/08 02:59:38;;;;;;;4.20;2.07;;;;;;;4.15;100.00;96235.72;5067163;28;20210;-70
2022/11/08 03:02:04;;;;;;;5.67;2.43;;;;;;;4.11;100.00;96233.53;5068372;28;20207;-70
2022/11/08 03:04:31;;;;;;;5.47;2.70;;;;;;;4.00;100.00;96228.47;5059495;28;20568;-70
2022/11/08 03:06:58;;;;;;;6.83;2.70;;;;;;;3.98;100.00;96231.19;5062535;28;20307;-70
2022/11/08 03:09:25;;;;;;;5.37;2.83;;;;;;;3.95;100.00;96228.06;5063448;28;20197;-70
2022/11/08 03:11:52;;;;;;;5.57;3.10;;;;;;;4.05;100.00;96227.09;5059935;28;20638;-70
2022/11/08 03:14:19;;;;;;;4.03;2.40;;;;;;;4.03;100.00;96236.81;5062349;28;20708;-70
2022/11/08 03:16:46;;;;;;;5.53;2.93;;;;;;;4.11;100.00;96234.38;5054817;28;20715;-70
2022/11/08 03:19:13;;;;;;;3.53;2.30;;;;;;;4.02;100.00;96231.75;5061756;28;20209;-70
2022/11/08 03:21:40;;;;;;;6.37;2.67;;;;;;;4.07;100.00;96230.38;5065530;28;20207;-70
2022/11/08 03:24:07;;;;;;;5.57;2.97;;;;;;;4.05;100.00;96232.31;5055995;28;20196;-70
2022/11/08 03:26:34;;;;;;;4.80;3.00;;;;;;;3.88;100.00;96229.53;5068429;28;20699;-70
2022/11/08 03:29:00;;;;;;;5.77;3.13;;;;;;;3.82;100.00;96225.72;5066717;28;20236;-70
2022/11/08 03:31:27;;;;;;;6.53;3.87;;;;;;;3.88;100.00;96221.72;5057851;28;20695;-70
2022/11/08 03:33:55;;;;;;;4.77;3.10;;;;;;;3.98;100.00;96217.34;5057841;28;20234;-70
2022/11/08 03:36:21;;;;;;;5.37;2.80;;;;;;;4.06;100.00;96222.69;5058300;28;20235;-70
2022/11/08 03:38:47;;;;;;;4.87;2.97;;;;;;;3.98;100.00;96220.75;5066555;28;20207;-70
2022/11/08 03:41:14;;;;;;;4.27;2.70;;;;;;;3.92;100.00;96225.69;5058804;28;20208;-70
2022/11/08 03:43:41;;;;;;;4.53;2.57;;;;;;;4.00;100.00;96218.03;5057660;28;20200;-70
2022/11/08 03:46:07;;;;;;;8.13;2.83;;;;;;;3.91;100.00;96221.47;5058272;28;20228;-70
2022/11/08 03:48:34;;;;;;;7.77;2.90;;;;;;;3.89;100.00;96218.97;5058253;28;20573;-70
2022/11/08 03:51:02;;;;;;;4.07;2.50;;;;;;;3.94;100.00;96215.97;5058148;28;20211;-70
2022/11/08 03:53:28;;;;;;;5.87;3.03;;;;;;;3.92;100.00;96218.72;5057472;28;20200;-70
2022/11/08 03:55:55;;;;;;;4.47;2.83;;;;;;;3.87;100.00;96217.47;5063443;28;20235;-70
2022/11/08 03:58:21;;;;;;;9.13;3.43;;;;;;;3.86;100.00;96216.66;5061722;28;20242;-70
2022/11/08 04:00:48;;;;;;;5.33;2.77;;;;;;;3.75;100.00;96214.16;5062234;28;20204;-70
2022/11/08 04:03:14;;;;;;;4.80;2.53;;;;;;;3.74;100.00;96219.53;5059757;28;20208;-70
2022/11/08 04:05:41;;;;;;;5.63;2.80;;;;;;;3.61;100.00;96220.75;5062928;28;20687;-70
2022/11/08 04:08:09;;;;;;;4.97;2.90;;;;;;;3.70;100.00;96234.63;5065904;28;20215;-70
2022/11/08 04:10:36;;;;;;;5.07;2.80;;;;;;;3.73;100.00;96220.50;5057917;28;20200;-70
2022/11/08 04:15:51;;;;;;;7.50;2.67;;;;;;;3.66;100.00;96225.41;5057889;28;20235;-70
2022/11/08 04:21:21;;;;;;;5.73;2.57;;;;;;;3.58;100.00;96216.66;5058296;28;20215;-70
2022/11/08 04:23:52;;;;;;;3.77;2.53;;;;;;;3.64;100.00;96219.53;5058909;28;20192;-69
2022/11/08 04:26:19;;;;;;;5.70;2.87;;;;;;;3.58;100.00;96213.19;5057374;28;20736;-70
2022/11/08 04:28:46;;;;;;;4.57;2.90;;;;;;;3.60;100.00;96217.31;5057344;28;20196;-70
2022/11/08 04:31:15;;;;;;;5.60;2.60;;;;;;;3.70;100.00;96216.41;5057658;28;20230;-70
2022/11/08 04:33:42;;;;;;;7.90;2.97;;;;;;;3.70;100.00;96215.56;5061533;28;20652;-69
2022/11/08 04:36:10;;;;;;;6.87;3.00;;;;;;;3.62;100.00;96212.00;5058505;28;20228;-69
2022/11/08 04:38:37;;;;;;;6.13;2.73;;;;;;;3.62;100.00;96214.59;5056837;28;20200;-70
2022/11/08 04:41:07;;;;;;;6.47;3.20;;;;;;;3.66;100.00;96209.78;5058018;28;20219;-70
2022/11/08 04:43:34;;;;;;;5.63;3.03;;;;;;;3.52;100.00;96211.97;5064377;28;20232;-70
2022/11/08 04:46:02;;;;;;;6.93;2.90;;;;;;;3.65;100.00;96208.16;5056850;28;20236;-70
2022/11/08 04:48:29;;;;;;;6.90;2.60;;;;;;;3.63;100.00;96212.66;5070477;28;21072;-70
2022/11/08 04:50:55;;;;;;;5.60;2.73;;;;;;;3.46;100.00;96206.47;5057597;28;20200;-70
2022/11/08 04:53:22;;;;;;;6.97;2.83;;;;;;;3.49;100.00;96206.19;5056806;28;20568;-70
2022/11/08 04:55:49;;;;;;;5.03;3.03;;;;;;;3.43;100.00;96201.56;5057282;28;20227;-69
2022/11/08 04:58:17;;;;;;;4.77;3.20;;;;;;;3.49;100.00;96195.78;5057101;28;20215;-70
2022/11/08 05:00:43;;;;;;;4.87;2.80;;;;;;;3.37;100.00;96194.25;5060045;28;20209;-70
2022/11/08 05:03:10;;;;;;;4.70;2.93;;;;;;;3.32;100.00;96196.44;5056516;28;20213;-69
2022/11/08 05:05:36;;;;;;;5.37;2.90;;;;;;;3.21;100.00;96191.38;5060705;28;20192;-70
2022/11/08 05:08:03;;;;;;;5.60;3.73;;;;;;;3.30;100.00;96187.97;5056838;28;20212;-70
2022/11/08 05:10:29;;;;;;;11.83;3.53;;;;;;;3.43;100.00;96185.91;5057004;28;20200;-69
2022/11/08 05:12:57;;;;;;;5.93;2.50;;;;;;;3.54;100.00;96185.78;5056181;28;20204;-70
2022/11/08 05:15:25;;;;;;;6.33;3.27;;;;;;;3.39;100.00;96185.34;5056831;28;20247;-69
2022/11/08 05:17:51;;;;;;;6.73;3.20;;;;;;;3.35;100.00;96183.19;5056363;28;20216;-70
2022/11/08 05:25:49;;;;;;;8.90;3.00;;;;;;;3.21;100.00;96181.75;5056979;28;20193;-69
2022/11/08 05:28:16;;;;;;;5.90;3.30;;;;;;;3.22;100.00;96182.56;5064535;28;20643;-70
2022/11/08 05:30:44;;;;;;;7.57;3.20;;;;;;;3.31;100.00;96171.34;5057270;28;20214;-69
2022/11/08 05:33:12;;;;;;;8.90;3.07;;;;;;;3.16;100.00;96163.13;5063941;28;20207;-69
2022/11/08 05:35:39;;;;;;;7.37;3.50;;;;;;;3.13;100.00;96158.19;5056693;28;20227;-69
2022/11/08 05:38:05;;;;;;;11.43;3.43;;;;;;;3.07;100.00;96171.72;5060055;28;20646;-70
2022/11/08 05:40:33;;;;;;;8.33;3.77;;;;;;;3.16;100.00;96168.31;5055474;28;20195;-70
2022/11/08 05:42:59;;;;;;;9.77;4.47;;;;;;;3.16;100.00;96170.94;5056313;28;20219;-70
2022/11/08 05:45:26;;;;;;;7.27;4.07;;;;;;;3.09;100.00;96176.81;5056446;28;20204;-70
2022/11/08 05:47:54;;;;;;;7.30;3.83;;;;;;;3.19;100.00;96169.84;5059883;28;20871;-70
2022/11/08 05:50:21;;;;;;;7.30;3.97;;;;;;;3.12;100.00;96172.16;5056754;28;20219;-70
2022/11/08 05:52:47;;;;;;;12.07;4.30;;;;;;;3.12;100.00;96166.13;5055938;28;20663;-70
2022/11/08 05:55:14;;;;;;;11.73;4.60;;;;;;;3.10;100.00;96168.84;5056456;28;20287;-70
2022/11/08 05:57:42;;;;;;;6.97;3.63;;;;;;;3.02;100.00;96171.31;5055989;28;20231;-70
2022/11/08 06:00:10;;;;;;;10.83;3.87;;;;;;;3.06;100.00;96172.69;5060979;28;20208;-70
2022/11/08 06:02:36;;;;;;;6.40;3.63;;;;;;;2.99;100.00;96169.94;5065522;28;20239;-70
2022/11/08 06:05:05;;;;;;;12.80;5.20;;;;;;;3.11;100.00;96170.50;5061218;28;20207;-71
2022/11/08 06:07:31;;;;;;;11.80;4.67;;;;;;;3.08;100.00;96169.94;5066453;28;20228;-71
2022/11/08 06:09:58;;;;;;;19.07;4.77;;;;;;;3.13;100.00;96183.38;5059968;28;20200;-70
2022/11/08 06:12:24;;;;;;;12.73;4.53;;;;;;;3.18;100.00;96191.63;5067533;28;20210;-71
2022/11/08 06:14:51;;;;;;;22.83;5.63;;;;;;;3.16;100.00;96188.34;5059771;28;20245;-71
2022/11/08 06:17:17;;;;;;;21.23;6.30;;;;;;;3.15;100.00;96189.28;5060353;28;20231;-71
2022/11/08 06:19:44;;;;;;;16.80;5.07;;;;;;;3.16;100.00;96181.34;5060201;28;20199;-71
2022/11/08 06:22:12;;;;;;;12.93;5.00;;;;;;;3.17;100.00;96182.16;5057478;28;20235;-70
2022/11/08 06:24:38;;;;;;;10.53;4.77;;;;;;;3.09;100.00;96174.19;5058888;28;20660;-71
2022/11/08 06:27:05;;;;;;;17.67;5.33;;;;;;;3.19;100.00;96162.84;5066615;28;20227;-71
2022/11/08 06:29:32;;;;;;;11.30;5.27;;;;;;;3.12;100.00;96176.56;5059321;28;20201;-71
2022/11/08 06:31:58;;;;;;;19.47;5.50;;;;;;;3.11;100.00;96174.91;5060044;28;20212;-71
2022/11/08 06:34:25;;;;;;;18.73;5.00;;;;;;;3.31;100.00;96186.97;5058574;28;20231;-71
2022/11/08 06:36:53;;;;;;;15.40;4.60;;;;;;;3.20;100.00;96194.91;5063444;28;20305;-70
2022/11/08 06:39:21;;;;;;;9.27;5.27;;;;;;;3.14;100.00;96195.44;5070674;28;20335;-70
2022/11/08 06:41:48;;;;;;;15.47;5.00;;;;;;;3.20;100.00;96211.34;5060314;28;20204;-70
2022/11/08 06:44:14;;;;;;;19.03;4.60;;;;;;;3.22;100.00;96206.00;5068131;28;20757;-69
2022/11/08 06:46:41;;;;;;;9.17;4.97;;;;;;;3.32;100.00;96206.84;5067697;28;20613;-71
2022/11/08 06:49:07;;;;;;;8.63;4.93;;;;;;;3.45;100.00;96207.44;5064430;28;20208;-70
2022/11/08 06:51:34;;;;;;;21.93;5.20;;;;;;;3.54;100.00;96198.81;5062389;28;20208;-71
2022/11/08 06:54:02;;;;;;;20.73;6.33;;;;;;;3.59;100.00;96200.06;5073430;28;20691;-71
2022/11/08 06:56:30;;;;;;;13.60;5.27;;;;;;;3.65;100.00;96197.72;5059935;28;20239;-69
2022/11/08 06:58:56;;;;;;;12.07;5.30;;;;;;;3.72;100.00;96193.59;5068402;28;20206;-71
2022/11/08 07:01:23;;;;;;;12.63;5.80;;;;;;;3.73;100.00;96189.25;5075654;28;20203;-72
2022/11/08 07:03:49;;;;;;;13.27;5.30;;;;;;;3.70;100.00;96190.34;5066408;28;20203;-72
2022/11/08 07:06:16;;;;;;;11.90;5.00;;;;;;;3.71;100.00;96181.53;5059519;28;20696;-71
2022/11/08 07:08:42;;;;;;;9.70;4.97;;;;;;;3.76;100.00;96184.56;5058640;28;20228;-72
2022/11/08 07:11:09;;;;;;;19.10;5.90;;;;;;;3.84;100.00;96182.06;5059115;28;20300;-71
2022/11/08 07:13:37;;;;;;;15.03;5.83;;;;;;;3.88;100.00;96183.47;5064543;28;20270;-70
2022/11/08 07:16:04;;;;;;;18.03;5.97;;;;;;;3.94;100.00;96182.09;5058646;28;20227;-71
2022/11/08 07:18:31;;;;;;;12.77;6.00;;;;;;;4.03;100.00;96169.03;5064574;28;21210;-71
2022/11/08 07:21:01;;;;;;;13.53;6.00;;;;;;;4.14;100.00;96174.09;5058001;28;20212;-71
2022/11/08 07:23:28;;;;;;;12.53;5.13;;;;;;;4.17;100.00;96181.63;5068903;28;20199;-71
2022/11/08 07:25:55;;;;;;;11.10;5.50;;;;;;;4.11;100.00;96174.41;5065412;28;20211;-71
2022/11/08 07:28:21;;;;;;;23.17;5.47;;;;;;;4.22;100.00;96176.03;5060051;28;20669;-73
2022/11/08 07:30:49;;;;;;;9.87;4.67;;;;;;;4.25;100.00;96181.75;5061132;28;20223;-69
2022/11/08 07:33:16;;;;;;;8.73;4.93;;;;;;;4.20;100.00;96193.56;5057552;28;20232;-68
2022/11/08 07:35:45;;;;;;;8.93;4.40;;;;;;;4.04;100.00;96190.72;5057513;28;21057;-69
2022/11/08 07:38:11;;;;;;;11.73;4.97;;;;;;;4.08;100.00;96195.50;5058294;28;20208;-68
2022/11/08 07:40:38;;;;;;;10.93;5.20;;;;;;;3.94;100.00;96188.13;5058747;28;20554;-71
2022/11/08 07:43:04;;;;;;;10.70;5.27;;;;;;;4.02;100.00;96190.03;5060340;28;20207;-71
2022/11/08 07:45:30;;;;;;;14.77;6.60;;;;;;;3.99;100.00;96190.31;5064881;28;20196;-72
2022/11/08 07:47:59;;;;;;;12.87;6.17;;;;;;;4.08;100.00;96190.31;5058433;28;20228;-72
2022/11/08 07:50:25;;;;;;;21.93;7.33;;;;;;;4.18;100.00;96193.72;5064400;28;20200;-71
2022/11/08 07:52:52;;;;;;;13.50;6.43;;;;;;;4.25;100.00;96189.56;5057074;28;20584;-68
2022/11/08 07:55:19;;;;;;;18.87;6.67;;;;;;;4.14;100.00;96202.78;5061516;28;20227;-68
2022/11/08 07:57:45;;;;;;;19.50;6.63;;;;;;;4.42;100.00;96199.31;5057889;28;20612;-69
2022/11/08 08:00:13;;;;;;;11.97;6.13;;;;;;;4.37;100.00;96204.13;5060702;28;20663;-69
2022/11/08 08:02:39;;;;;;;11.80;5.27;;;;;;;4.44;100.00;96205.19;5060710;28;20257;-69
2022/11/08 08:05:08;;;;;;;14.30;5.97;;;;;;;4.53;100.00;96207.81;5057467;28;20201;-68
2022/11/08 08:07:35;;;;;;;41.70;5.60;;;;;;;4.44;100.00;96210.41;5062489;28;20235;-68
2022/11/08 08:10:02;;;;;;;25.07;4.80;;;;;;;4.54;100.00;96208.63;5063359;28;20208;-70
2022/11/08 08:12:29;;;;;;;25.63;5.47;;;;;;;4.36;100.00;96210.31;5061307;28;20223;-68
2022/11/08 08:14:55;;;;;;;7.00;4.00;;;;;;;4.52;100.00;96210.53;5056440;28;20235;-68
2022/11/08 08:17:22;;;;;;;9.10;4.27;;;;;;;4.73;100.00;96204.16;5057085;28;20224;-69
2022/11/08 08:19:48;;;;;;;22.53;5.50;;;;;;;4.94;100.00;96207.41;5056569;28;20656;-68
2022/11/08 08:22:16;;;;;;;9.47;4.93;;;;;;;5.26;100.00;96213.81;5054323;28;20204;-68
2022/11/08 08:24:43;;;;;;;12.37;5.07;;;;;;;5.22;100.00;96207.25;5056592;28;20207;-69
2022/11/08 08:27:10;;;;;;;12.87;5.90;;;;;;;5.38;100.00;96196.97;5056538;28;20401;-68
2022/11/08 08:29:36;;;;;;;19.60;5.33;;;;;;;5.50;100.00;96201.03;5056528;28;20201;-69
2022/11/08 08:32:03;;;;;;;28.03;6.17;;;;;;;5.49;100.00;96199.41;5058063;28;20211;-68
2022/11/08 08:34:29;;;;;;;15.73;6.00;;;;;;;5.33;100.00;96201.00;5058131;28;20201;-68
2022/11/08 08:36:56;;;;;;;13.50;5.90;;;;;;;5.62;100.00;96194.63;5059690;28;20227;-69
2022/11/08 08:39:23;;;;;;;10.33;5.80;;;;;;;5.85;100.00;96190.63;5059733;28;20197;-69
2022/11/08 08:41:50;;;;;;;13.30;6.07;;;;;;;5.81;100.00;96194.53;5057102;28;20201;-69
2022/11/08 08:44:16;;;;;;;15.47;6.07;;;;;;;5.82;100.00;96202.22;5055739;28;20380;-69
2022/11/08 08:46:43;;;;;;;10.43;6.17;;;;;;;5.98;100.00;96201.53;5059321;28;20221;-69
2022/11/08 08:49:09;;;;;;;11.30;5.97;;;;;;;6.03;100.00;96204.53;5057036;28;20211;-68
2022/11/08 08:51:36;;;;;;;15.03;6.37;;;;;;;5.95;100.00;96204.47;5058175;28;20385;-69
2022/11/08 08:54:02;;;;;;;13.60;6.70;;;;;;;5.92;100.00;96202.13;5058370;28;20200;-69
2022/11/08 08:56:30;;;;;;;12.77;7.13;;;;;;;6.12;100.00;96201.81;5056311;28;20692;-69
2022/11/08 08:58:57;;;;;;;14.03;6.57;;;;;;;5.88;100.00;96191.16;5056581;28;20204;-69
2022/11/08 09:01:24;;;;;;;13.13;7.03;;;;;;;6.06;100.00;96189.38;5056246;28;20387;-68
2022/11/08 09:03:50;;;;;;;17.53;6.90;;;;;;;6.23;100.00;96181.47;5056271;28;20201;-69
2022/11/08 09:06:17;;;;;;;13.17;7.20;;;;;;;6.29;100.00;96186.13;5056030;28;20224;-70
2022/11/08 09:08:43;;;;;;;14.47;7.53;;;;;;;6.28;100.00;96189.69;5056487;28;20196;-69
2022/11/08 09:11:10;;;;;;;13.93;7.10;;;;;;;6.30;100.00;96193.00;5056126;28;20556;-70
2022/11/08 09:13:37;;;;;;;12.23;5.83;;;;;;;6.36;100.00;96197.59;5061353;28;20207;-69
2022/11/08 09:16:06;;;;;;;15.97;7.07;;;;;;;6.35;100.00;96195.97;5055874;28;20231;-68
2022/11/08 09:18:33;;;;;;;17.00;6.90;;;;;;;6.32;100.00;96206.72;5056715;28;20231;-69
2022/11/08 09:21:03;;;;;;;14.27;6.57;;;;;;;6.43;100.00;96198.66;5054075;28;20205;-69
2022/11/08 09:23:29;;;;;;;14.80;6.40;;;;;;;6.50;100.00;96198.84;5056545;28;20226;-69
2022/11/08 09:25:57;;;;;;;13.90;6.63;;;;;;;6.64;100.00;96196.50;5056479;28;20645;-68
2022/11/08 09:28:23;;;;;;;12.23;6.63;;;;;;;6.64;100.00;96190.44;5059387;28;20205;-69
2022/11/08 09:30:51;;;;;;;14.80;8.27;;;;;;;6.79;100.00;96190.53;5055949;28;20201;-68
2022/11/08 09:33:17;;;;;;;16.83;8.07;;;;;;;6.82;100.00;96189.41;5055842;28;20359;-68
2022/11/08 09:35:45;;;;;;;14.40;6.80;;;;;;;7.07;100.00;96191.97;5059972;28;20227;-68
2022/11/08 09:38:11;;;;;;;13.77;6.50;;;;;;;7.15;100.00;96193.81;5059470;28;20243;-69
2022/11/08 09:40:41;;;;;;;11.97;6.43;;;;;;;7.51;100.00;96189.06;5059629;28;20196;-69
2022/11/08 09:43:28;;;;;;;15.73;7.37;;;;;;;7.74;100.00;96187.47;5064874;28;20207;-69
2022/11/08 09:45:56;;;;;;;17.93;6.93;;;;;;;7.87;100.00;96188.63;5060321;28;20207;-69
2022/11/08 09:48:26;;;;;;;12.57;6.83;;;;;;;7.91;100.00;96186.50;5059544;28;20200;-69
2022/11/08 09:50:55;;;;;;;11.80;5.50;;;;;;;8.01;100.00;96192.44;5060364;28;20197;-68
2022/11/08 09:53:34;;;;;;;12.13;5.83;;;;;;;8.23;100.00;96204.94;5059724;28;20204;-69
2022/11/08 09:56:05;;;;;;;19.43;7.07;;;;;;;8.32;100.00;96206.59;5059078;28;20238;-69
2022/11/08 09:58:35;;;;;;;14.13;7.27;;;;;;;8.55;100.00;96217.09;5060339;28;20684;-69
2022/11/08 10:01:04;;;;;;;12.27;6.70;;;;;;;8.67;100.00;96223.63;5067682;28;20209;-69
2022/11/08 10:03:31;;;;;;;11.03;5.47;;;;;;;8.72;100.00;96223.16;5058848;28;20566;-68
2022/11/08 10:06:21;;;;;;;17.00;6.83;;;;;;;8.73;100.00;96220.34;5059530;28;20224;-68
2022/11/08 10:08:55;;;;;;;13.17;6.83;;;;;;;8.81;100.00;96209.03;5059141;28;20581;-69
2022/11/08 10:11:36;;;;;;;11.27;5.53;;;;;;;8.83;100.00;96207.03;5059001;28;20420;-69
2022/11/08 10:14:17;;;;;;;18.20;6.70;;;;;;;8.99;100.00;96205.19;5064449;28;20204;-69
2022/11/08 10:16:53;;;;;;;10.83;5.57;;;;;;;8.95;100.00;96196.00;5059281;28;20224;-70
2022/11/08 10:19:38;;;;;;;12.03;4.93;;;;;;;9.07;100.00;96205.16;5058991;28;20752;-70
2022/11/08 10:22:12;;;;;;;11.57;5.30;;;;;;;9.45;100.00;96193.88;5056853;28;20208;-69
2022/11/08 10:24:47;;;;;;;8.80;4.90;;;;;;;9.56;100.00;96194.31;5059022;28;20196;-69
2022/11/08 10:27:19;;;;;;;9.60;5.13;;;;;;;9.71;100.00;96193.41;5058867;28;20224;-69
2022/11/08 10:29:46;;;;;;;9.23;4.77;;;;;;;9.79;100.00;96189.91;5059308;28;20208;-69
2022/11/08 10:32:20;;;;;;;6.47;4.40;;;;;;;9.94;100.00;96185.53;5058550;28;20215;-70
2022/11/08 10:34:54;;;;;;;9.10;5.23;;;;;;;10.00;100.00;96185.69;5066883;28;20201;-70
2022/11/08 10:37:22;;;;;;;10.13;5.27;;;;;;;10.21;100.00;96183.25;5059068;28;20239;-70
2022/11/08 10:39:55;;;;;;;8.23;5.00;;;;;;;10.28;100.00;96181.53;5059234;28;20204;-70
2022/11/08 10:42:31;;;;;;;8.53;4.90;;;;;;;10.42;100.00;96178.13;5058206;28;20464;-69
2022/11/08 10:44:58;;;;;;;10.33;4.80;;;;;;;10.43;100.00;96177.13;5059358;28;20196;-69
2022/11/08 10:47:28;;;;;;;9.23;4.77;;;;;;;10.72;97.92;96166.69;5058539;28;20223;-69
2022/11/08 10:49:55;;;;;;;12.93;6.30;;;;;;;10.85;95.87;96161.59;5058664;28;20200;-69
2022/11/08 10:52:30;;;;;;;21.17;8.47;;;;;;;11.05;95.70;96159.06;5057402;28;20215;-69
2022/11/08 10:54:58;;;;;;;10.70;5.77;;;;;;;11.09;94.91;96147.16;5060192;28;20215;-69
2022/11/08 10:57:36;;;;;;;10.97;4.97;;;;;;;11.22;96.49;96138.59;5066193;28;20294;-69
2022/11/08 11:00:23;;;;;;;10.20;5.13;;;;;;;11.22;97.26;96139.41;5060473;28;20281;-68
2022/11/08 11:02:52;;;;;;;9.17;5.03;;;;;;;11.32;95.95;96139.94;5057723;28;20196;-69
2022/11/08 11:05:24;;;;;;;11.00;5.00;;;;;;;11.42;96.01;96145.75;5058342;28;20204;-69
2022/11/08 11:08:03;;;;;;;7.57;4.73;;;;;;;11.67;96.02;96139.19;5058414;28;20220;-69
2022/11/08 11:10:31;;;;;;;9.63;4.50;;;;;;;11.70;94.90;96144.09;5059282;28;20197;-69
2022/11/08 11:13:02;;;;;;;8.17;4.57;;;;;;;11.78;93.80;96151.91;5060990;28;20212;-69
2022/11/08 11:15:33;;;;;;;10.20;4.57;;;;;;;11.84;93.05;96145.91;5060010;28;20208;-70
2022/11/08 11:18:01;;;;;;;14.17;5.17;;;;;;;12.05;92.91;96141.41;5060932;28;20255;-69
2022/11/08 11:20:28;;;;;;;8.73;4.17;;;;;;;12.10;92.85;96152.25;5056528;28;20463;-69
2022/11/08 11:22:54;;;;;;;8.67;4.47;;;;;;;12.18;91.84;96146.81;5058669;28;20413;-69
2022/11/08 11:25:23;;;;;;;6.17;3.73;;;;;;;12.24;90.98;96152.22;5058328;28;20644;-70
2022/11/08 11:27:54;;;;;;;7.00;4.00;;;;;;;12.17;88.64;96146.03;5058560;28;20212;-69
2022/11/08 11:30:23;;;;;;;6.93;3.67;;;;;;;12.21;90.03;96139.34;5062387;28;20558;-70
2022/11/08 11:32:56;;;;;;;11.10;4.20;;;;;;;12.43;89.18;96151.53;5057145;28;20657;-69
2022/11/08 11:35:25;;;;;;;8.07;4.00;;;;;;;12.37;89.09;96144.41;5058199;28;20204;-69
2022/11/08 11:37:54;;;;;;;6.07;3.50;;;;;;;12.53;88.25;96138.03;5057688;28;20231;-69
2022/11/08 11:40:26;;;;;;;8.30;4.20;;;;;;;12.62;89.20;96132.38;5057727;28;20542;-69
2022/11/08 11:43:01;;;;;;;8.97;3.77;;;;;;;12.67;87.27;96118.59;5063656;28;20203;-68
2022/11/08 11:45:31;;;;;;;8.07;3.70;;;;;;;12.85;85.76;96123.22;5063334;28;20691;-70
2022/11/08 11:48:02;;;;;;;8.43;3.43;;;;;;;12.92;84.54;96118.81;5057212;28;20235;-70
2022/11/08 11:50:33;;;;;;;6.70;3.60;;;;;;;12.97;85.45;96115.56;5063577;28;20227;-69
2022/11/08 11:53:03;;;;;;;7.50;3.67;;;;;;;12.92;82.21;96105.59;5064689;28;20667;-69
2022/11/08 11:55:45;;;;;;;5.65;3.10;;;;;;;12.89;82.45;96105.16;5057443;28;20208;-69